首页
METAR-TAF:

METAR-TAF

机场 :

巴林国际机场

巴林, 巴林

纬度: 26-16N, 经度: 050-39E, 海拔: 2米

当前天气观测

该预报发布于19分钟前的12:30 UTC
风速20节,风向西北
温度 25°C
湿度 57%
气压 1016 hPa
能见度10公里或以上
散云层高于2500英尺

METAR: OBBI 181230Z 32020KT 9999 SCT025 25/16 Q1016 NOSIG

时间: 15:49 (12:49 UTC)

预报

该预报发布于1小时和49分钟前的11:00 UTC
预报有效从18日的 12点(UTC)到 19日的 18点(UTC)
风速15节,风向西北,有时为25节阵风
能见度10公里或以上
散云层高于1500英尺
几率 30% :
短暂存在
从 19日的 00点(UTC)到 19日的 04点(UTC)
能見度: 5000

TAF: OBBI 181100Z 1812/1918 32015G25KT 9999 SCT015 PROB30 TEMPO 1900/1904 5000 HZ

超过4000个机场的气象观测和天气预报(METAR&TAF报告)。

可查询的气象台以黄色和红色小点在地图上表示。

将鼠标移到小点上方,可查看气象台名称。

然后点击查看天气观测和预报。

如需切换地图:点击带黑十字的绿色按钮放大地图;点击带横线的绿色按钮缩小地图;或者点击绿色箭头查看邻近地区的地图。


METAR-TAF: